This is the latest recevied weather packets stored in our database for station/object NO4D. If no packets are shown the sender has not sent any weather packets the latest 10 day(s).
| Time | Temp. | Humidity | Pressure | Rain* | Wind** | Luminosity | Snow |
|---|---|---|---|---|---|---|---|
| 1777769122 | 15° C | 43% | 1013.6 hPa | 0 mm | - | 0 W/m² | - |
| 1777768821 | 15° C | 42% | 1013.7 hPa | 0 mm | - | 0 W/m² | - |
| 1777768517 | 15.56° C | 41% | 1013.4 hPa | 0 mm | - | 0 W/m² | - |
| 1777768214 | 15.56° C | 42% | 1013.6 hPa | 0 mm | - | 0 W/m² | - |
| 1777767911 | 15.56° C | 42% | 1013.6 hPa | 0 mm | - | 0 W/m² | - |
| 1777767608 | 15.56° C | 42% | 1013.2 hPa | 0 mm | - | 0 W/m² | - |
| 1777767304 | 16.11° C | 41% | 1013.2 hPa | 0 mm | - | 2 W/m² | - |
| 1777767002 | 16.11° C | 43% | 1013.3 hPa | 0 mm | - | 4 W/m² | - |
| 1777766699 | 16.11° C | 43% | 1013 hPa | 0 mm | - | 9 W/m² | - |
| 1777766396 | 16.11° C | 41% | 1013.1 hPa | 0 mm | - | 13 W/m² | - |
| 1777766092 | 16.11° C | 42% | 1013 hPa | 0 mm | - | 16 W/m² | - |
| 1777765790 | 16.67° C | 42% | 1012.8 hPa | 0 mm | - | 21 W/m² | - |
| 1777765486 | 16.67° C | 42% | 1013 hPa | 0 mm | - | 25 W/m² | - |
| 1777765184 | 16.67° C | 42% | 1012.7 hPa | 0 mm | - | 28 W/m² | - |
| 1777764879 | 16.67° C | 44% | 1012.7 hPa | 0 mm | - | 32 W/m² | - |
| 1777764576 | 16.67° C | 42% | 1012.6 hPa | 0 mm | - | 37 W/m² | - |
| 1777764272 | 17.22° C | 42% | 1012.5 hPa | 0 mm | - | 45 W/m² | - |
| 1777763969 | 17.22° C | 42% | 1012.3 hPa | 0 mm | - | 68 W/m² | - |
| 1777763667 | 17.78° C | 42% | 1012.3 hPa | 0 mm | - | 86 W/m² | - |
| 1777763365 | 17.78° C | 43% | 1012.1 hPa | 0 mm | - | 98 W/m² | - |
| 1777763063 | 17.78° C | 44% | 1012.1 hPa | 0 mm | - | 129 W/m² | - |
| 1777762760 | 17.22° C | 45% | 1012.3 hPa | 0 mm | - | 143 W/m² | - |
| 1777762456 | 17.22° C | 45% | 1012.2 hPa | 0 mm | - | 75 W/m² | - |
| 1777762153 | 16.67° C | 61% | 1012.3 hPa | 0 mm | - | 76 W/m² | - |
| 1777761849 | 16.67° C | 65% | 1012 hPa | 0 mm | - | 93 W/m² | - |
* Rain latest hour (hover to see other rain measurements)
** Current wind speed in m/s (hover to see current wind gust speed)